Time;durP1;ratioP1;P1;durP2;ratioP2;P2;SDS_P1;SDS_P2;PMS_P1;PMS_P2;Temp;Humidity;BMP_temperature;BMP_pressure;BME280_temperature;BME280_humidity;BME280_pressure;Samples;Min_cycle;Max_cycle;Signal;HPM_P1;HPM_P2
2022/05/07 00:02:02;;;;;;;27.73;14.73;;;;;;;13.25;97.79;102299.84;5056011;28;20523;-84
2022/05/07 00:04:28;;;;;;;23.55;14.45;;;;;;;13.25;96.83;102297.16;5056381;28;20020;-84
2022/05/07 00:06:53;;;;;;;23.73;14.38;;;;;;;13.21;96.69;102290.41;5041245;28;20025;-84
2022/05/07 00:09:18;;;;;;;25.30;15.13;;;;;;;13.25;97.27;102300.72;5060277;28;20378;-82
2022/05/07 00:11:46;;;;;;;29.75;15.43;;;;;;;13.26;97.47;102296.19;5042051;28;20036;-83
2022/05/07 00:14:11;;;;;;;27.45;16.25;;;;;;;13.27;96.73;102292.50;5055311;28;20032;-84
2022/05/07 00:19:20;;;;;;;30.35;17.00;;;;;;;13.33;95.74;102283.09;5060484;28;20090;-82
2022/05/07 00:21:45;;;;;;;32.35;17.92;;;;;;;13.33;94.94;102285.78;5059689;28;20033;-83
2022/05/07 00:24:11;;;;;;;33.60;18.15;;;;;;;13.28;95.35;102286.16;5061068;28;20016;-83
2022/05/07 00:26:36;;;;;;;37.72;18.88;;;;;;;13.24;95.35;102282.09;5060286;28;20020;-82
2022/05/07 00:29:01;;;;;;;28.98;18.25;;;;;;;13.21;96.11;102277.00;5061057;28;20008;-82
2022/05/07 00:31:27;;;;;;;29.45;17.83;;;;;;;13.22;95.32;102279.53;5060610;28;20031;-82
2022/05/07 00:33:52;;;;;;;27.75;17.98;;;;;;;13.23;96.06;102278.53;5061547;28;20099;-82
2022/05/07 00:36:17;;;;;;;31.95;19.20;;;;;;;13.21;95.96;102282.38;5060633;28;20024;-83
2022/05/07 00:38:42;;;;;;;30.45;17.83;;;;;;;13.20;95.94;102275.28;5060108;28;20012;-83
2022/05/07 00:41:08;;;;;;;29.33;16.80;;;;;;;13.16;96.16;102282.78;5059326;28;20024;-83
2022/05/07 00:43:39;;;;;;;27.60;15.75;;;;;;;13.09;96.61;102268.25;5060554;28;20016;-83
2022/05/07 00:46:05;;;;;;;29.30;16.38;;;;;;;13.02;97.15;102276.03;5061303;28;20093;-83
2022/05/07 00:48:30;;;;;;;26.80;16.55;;;;;;;12.88;98.64;102276.44;5060879;28;20521;-83
2022/05/07 00:53:40;;;;;;;28.63;16.48;;;;;;;12.63;100.00;102264.47;5062518;28;20107;-83
2022/05/07 00:56:07;;;;;;;27.70;17.30;;;;;;;12.57;100.00;102273.88;5061988;28;20351;-84
2022/05/07 00:58:34;;;;;;;27.98;17.20;;;;;;;12.53;100.00;102260.91;5061771;28;20094;-83
2022/05/07 01:00:59;;;;;;;34.17;18.35;;;;;;;12.61;100.00;102261.03;5064245;28;20111;-84
2022/05/07 01:03:24;;;;;;;28.63;17.40;;;;;;;12.65;100.00;102270.50;5050898;28;20573;-83
2022/05/07 01:05:50;;;;;;;30.08;18.25;;;;;;;12.69;100.00;102258.50;5043764;28;20503;-84
2022/05/07 01:08:16;;;;;;;27.67;17.33;;;;;;;12.73;100.00;102268.00;5044020;28;20278;-83
2022/05/07 01:10:42;;;;;;;34.97;17.00;;;;;;;12.80;100.00;102262.91;5042492;28;20229;-83
2022/05/07 01:13:07;;;;;;;27.45;16.25;;;;;;;12.78;100.00;102257.69;5039672;28;20252;-83
2022/05/07 01:15:42;;;;;;;26.85;16.25;;;;;;;12.79;100.00;102259.38;5038918;28;20631;-84
2022/05/07 01:18:07;;;;;;;26.55;16.30;;;;;;;12.82;100.00;102266.28;5038250;28;20083;-83
2022/05/07 01:20:33;;;;;;;30.15;16.63;;;;;;;12.81;100.00;102256.53;5040184;28;20096;-84
2022/05/07 01:23:00;;;;;;;26.92;16.10;;;;;;;12.81;100.00;102254.72;5038896;28;20434;-84
2022/05/07 01:25:25;;;;;;;32.13;16.15;;;;;;;12.78;100.00;102251.47;5037317;28;20097;-84
2022/05/07 01:27:50;;;;;;;30.17;17.13;;;;;;;12.76;100.00;102251.59;5039377;28;20025;-82
2022/05/07 01:30:15;;;;;;;24.40;15.65;;;;;;;12.66;100.00;102245.38;5039326;28;20021;-82
2022/05/07 01:32:41;;;;;;;29.20;15.27;;;;;;;12.53;100.00;102250.19;5020703;28;20348;-83
2022/05/07 01:35:07;;;;;;;22.83;14.93;;;;;;;12.40;100.00;102255.81;5039123;28;20025;-82
2022/05/07 01:37:32;;;;;;;24.85;15.20;;;;;;;12.33;100.00;102250.16;5038251;28;20495;-82
2022/05/07 01:39:58;;;;;;;26.17;15.60;;;;;;;12.26;100.00;102244.50;5037301;28;20033;-82
2022/05/07 01:42:23;;;;;;;26.70;16.38;;;;;;;12.31;100.00;102244.09;5020265;28;20698;-82
2022/05/07 01:44:48;;;;;;;28.75;17.02;;;;;;;12.36;100.00;102243.69;5038717;28;20139;-82
2022/05/07 01:49:57;;;;;;;39.00;19.17;;;;;;;12.39;100.00;102246.94;5038893;28;20040;-83
2022/05/07 01:52:23;;;;;;;36.65;19.08;;;;;;;12.40;100.00;102240.56;5036109;28;20426;-83
2022/05/07 01:54:49;;;;;;;32.72;19.13;;;;;;;12.45;100.00;102237.47;5019721;28;20021;-83
2022/05/07 01:57:14;;;;;;;34.53;19.20;;;;;;;12.49;100.00;102238.88;5038379;28;20021;-83
2022/05/07 01:59:39;;;;;;;34.33;19.98;;;;;;;12.55;100.00;102237.50;5039319;28;20464;-83
2022/05/07 02:02:05;;;;;;;39.38;20.67;;;;;;;12.52;100.00;102233.25;5021520;28;20046;-83
2022/05/07 02:04:31;;;;;;;37.83;20.33;;;;;;;12.57;100.00;102238.19;5039351;28;20025;-83
2022/05/07 02:06:57;;;;;;;33.25;21.30;;;;;;;12.58;100.00;102231.88;5038389;28;20081;-83
2022/05/07 02:09:22;;;;;;;33.97;21.30;;;;;;;12.59;100.00;102234.41;5038735;28;20013;-83
2022/05/07 02:11:47;;;;;;;35.05;21.15;;;;;;;12.62;100.00;102234.09;5012421;28;20103;-83
2022/05/07 02:14:13;;;;;;;32.75;20.02;;;;;;;12.60;100.00;102225.38;4999940;28;20040;-83
2022/05/07 02:16:38;;;;;;;33.25;20.20;;;;;;;12.62;100.00;102227.91;5006215;28;20072;-83
2022/05/07 02:19:03;;;;;;;33.03;19.52;;;;;;;12.66;100.00;102221.25;5018573;28;20037;-83
2022/05/07 02:21:29;;;;;;;34.70;19.52;;;;;;;12.64;100.00;102218.75;5017522;28;20111;-83
2022/05/07 02:23:54;;;;;;;28.30;18.58;;;;;;;12.65;100.00;102220.44;5017125;28;20071;-83
2022/05/07 02:26:19;;;;;;;30.77;17.63;;;;;;;12.61;100.00;102215.47;5015909;28;20128;-84
2022/05/07 02:28:45;;;;;;;32.55;17.52;;;;;;;12.59;100.00;102218.31;5017997;28;20436;-83
2022/05/07 02:31:10;;;;;;;30.30;18.17;;;;;;;12.64;100.00;102224.13;5016216;28;20112;-83
2022/05/07 02:33:35;;;;;;;28.98;18.25;;;;;;;12.60;100.00;102214.66;5018247;28;20408;-83
2022/05/07 02:36:00;;;;;;;30.00;18.65;;;;;;;12.64;100.00;102218.75;5017800;28;20081;-83
2022/05/07 02:38:26;;;;;;;29.65;18.08;;;;;;;12.67;100.00;102215.75;4996774;28;20036;-83
2022/05/07 02:43:35;;;;;;;28.13;18.40;;;;;;;12.68;100.00;102213.97;4998895;28;20088;-82
2022/05/07 02:46:00;;;;;;;28.40;18.90;;;;;;;12.63;100.00;102209.00;4999011;28;20457;-83
2022/05/07 02:48:25;;;;;;;38.45;19.45;;;;;;;12.66;100.00;102206.06;4998242;28;20504;-82
2022/05/07 02:50:51;;;;;;;31.65;19.20;;;;;;;12.64;100.00;102216.06;4997459;28;20057;-83
2022/05/07 02:53:16;;;;;;;34.80;19.75;;;;;;;12.59;100.00;102212.97;5001898;28;20377;-83
2022/05/07 02:55:41;;;;;;;29.30;18.05;;;;;;;12.50;100.00;102203.91;4998764;28;20038;-83
2022/05/07 02:58:08;;;;;;;33.05;17.65;;;;;;;12.38;100.00;102214.91;4999080;28;20033;-82
2022/05/07 03:00:33;;;;;;;24.88;15.80;;;;;;;12.18;100.00;102206.00;4997499;28;20129;-83
2022/05/07 03:02:59;;;;;;;28.90;16.42;;;;;;;12.12;100.00;102207.41;4998422;28;20108;-82
2022/05/07 03:05:24;;;;;;;30.98;17.33;;;;;;;12.15;100.00;102208.94;4997655;28;20065;-83
2022/05/07 03:07:49;;;;;;;39.53;18.85;;;;;;;12.15;100.00;102212.47;4998325;28;20056;-83
2022/05/07 03:10:15;;;;;;;32.53;18.70;;;;;;;12.07;100.00;102206.97;4997318;28;20046;-83
2022/05/07 03:12:40;;;;;;;27.85;17.42;;;;;;;12.04;100.00;102202.72;5033961;28;20225;-82
2022/05/07 03:15:06;;;;;;;33.53;19.08;;;;;;;12.02;100.00;102201.19;5038160;28;20219;-83
2022/05/07 03:17:34;;;;;;;36.47;19.98;;;;;;;11.98;100.00;102208.63;5052040;28;20054;-82
2022/05/07 03:20:00;;;;;;;40.25;19.27;;;;;;;11.99;100.00;102212.16;5056906;28;20460;-83
2022/05/07 03:22:25;;;;;;;42.40;19.88;;;;;;;11.97;100.00;102212.31;5034724;28;20126;-83
2022/05/07 03:24:50;;;;;;;32.65;19.52;;;;;;;11.92;100.00;102212.69;5035853;28;20376;-83
2022/05/07 03:27:15;;;;;;;31.67;19.08;;;;;;;11.85;100.00;102216.03;5036800;28;20043;-81
2022/05/07 03:29:41;;;;;;;28.42;18.67;;;;;;;11.73;100.00;102216.13;5037387;28;20029;-83
2022/05/07 03:32:06;;;;;;;29.65;18.08;;;;;;;11.71;100.00;102212.75;5037898;28;20032;-83
2022/05/07 03:34:32;;;;;;;36.25;19.95;;;;;;;11.73;100.00;102216.13;5036029;28;20568;-83
2022/05/07 03:36:57;;;;;;;38.60;19.83;;;;;;;11.74;100.00;102203.59;5034747;28;20136;-83
2022/05/07 03:39:23;;;;;;;31.15;19.55;;;;;;;11.79;100.00;102213.91;5035626;28;20373;-83
2022/05/07 03:41:49;;;;;;;34.30;19.35;;;;;;;11.77;100.00;102206.84;5039473;28;20184;-83
2022/05/07 03:44:14;;;;;;;34.78;18.42;;;;;;;11.79;100.00;102220.09;5041976;28;20560;-83
2022/05/07 03:46:40;;;;;;;29.42;19.10;;;;;;;11.82;100.00;102216.31;5041416;28;20513;-84
2022/05/07 03:49:05;;;;;;;30.63;18.92;;;;;;;11.82;100.00;102217.16;5040842;28;20033;-83
2022/05/07 03:53:29;;;;;;;30.13;18.73;;;;;;;11.86;100.00;102215.91;5040573;28;20397;-83
2022/05/07 03:54:15;;;;;;;31.88;18.45;;;;;;;11.84;100.00;102219.69;5040809;28;20074;-83
2022/05/07 03:56:41;;;;;;;37.88;19.40;;;;;;;11.88;100.00;102223.78;5039791;28;20024;-83
2022/05/07 03:59:06;;;;;;;33.10;19.60;;;;;;;11.87;100.00;102224.78;5041360;28;20701;-82
2022/05/07 04:01:32;;;;;;;33.17;20.02;;;;;;;11.88;100.00;102221.97;5041455;28;20025;-83
2022/05/07 04:03:57;;;;;;;33.58;19.90;;;;;;;11.85;100.00;102222.22;5060560;28;20136;-83
2022/05/07 04:06:22;;;;;;;37.72;20.02;;;;;;;11.91;100.00;102228.91;5059490;28;20028;-83
2022/05/07 04:08:47;;;;;;;37.97;21.50;;;;;;;11.94;100.00;102229.47;5059342;28;20419;-83
2022/05/07 04:11:13;;;;;;;38.80;20.05;;;;;;;11.94;100.00;102229.47;5059386;28;20099;-83
2022/05/07 04:13:38;;;;;;;32.65;20.27;;;;;;;11.95;100.00;102224.97;5053412;28;20012;-83
2022/05/07 04:16:04;;;;;;;34.10;21.15;;;;;;;11.94;100.00;102226.78;5063326;28;20202;-83
2022/05/07 04:18:29;;;;;;;36.58;21.45;;;;;;;11.96;100.00;102233.84;5063322;28;20020;-83
2022/05/07 04:20:55;;;;;;;35.67;21.15;;;;;;;11.99;100.00;102236.25;5064381;28;20035;-83
2022/05/07 04:23:20;;;;;;;33.58;21.13;;;;;;;11.99;100.00;102231.75;5082216;28;20031;-83
2022/05/07 04:25:45;;;;;;;37.17;21.52;;;;;;;12.02;100.00;102236.84;5082470;28;20055;-83
2022/05/07 04:28:11;;;;;;;38.75;22.42;;;;;;;11.95;100.00;102233.00;5082504;28;20039;-84
2022/05/07 04:30:37;;;;;;;32.60;21.67;;;;;;;11.99;100.00;102236.25;5081961;28;20099;-83
2022/05/07 04:33:02;;;;;;;37.63;22.70;;;;;;;11.97;100.00;102230.22;5081611;28;20474;-83
2022/05/07 04:35:27;;;;;;;39.50;23.20;;;;;;;12.00;100.00;102235.25;5080149;28;20148;-83
2022/05/07 04:37:53;;;;;;;41.33;23.40;;;;;;;12.07;100.00;102239.94;5062240;28;20080;-83
2022/05/07 04:40:18;;;;;;;33.80;21.58;;;;;;;12.12;100.00;102236.88;5081142;28;20032;-83
2022/05/07 04:42:43;;;;;;;38.17;24.08;;;;;;;12.22;100.00;102237.75;5063670;28;20135;-83
2022/05/07 04:45:09;;;;;;;36.33;22.65;;;;;;;12.25;100.00;102239.28;5080294;28;20030;-83
2022/05/07 04:47:34;;;;;;;37.97;23.38;;;;;;;12.28;100.00;102247.88;5080386;28;20028;-84
2022/05/07 04:49:59;;;;;;;36.65;23.25;;;;;;;12.31;100.00;102247.59;5081320;28;20020;-83
2022/05/07 04:52:25;;;;;;;41.10;23.88;;;;;;;12.37;100.00;102248.88;5054068;28;20021;-83
2022/05/07 04:54:50;;;;;;;43.45;24.00;;;;;;;12.44;100.00;102247.38;5039547;28;20355;-83
2022/05/07 04:57:15;;;;;;;42.80;23.83;;;;;;;12.47;100.00;102248.91;5040661;28;20025;-83
2022/05/07 04:59:41;;;;;;;46.72;25.35;;;;;;;12.52;100.00;102252.00;5040283;28;20461;-83
2022/05/07 05:02:06;;;;;;;47.22;25.95;;;;;;;12.56;100.00;102255.25;5041167;28;20079;-83
2022/05/07 05:04:31;;;;;;;40.20;23.98;;;;;;;12.60;100.00;102243.28;5039328;28;20024;-83
2022/05/07 05:06:56;;;;;;;41.67;25.30;;;;;;;12.61;100.00;102259.22;5040264;28;20031;-83
2022/05/07 05:09:22;;;;;;;47.03;25.98;;;;;;;12.65;100.00;102259.78;5038355;28;20421;-83
2022/05/07 05:11:47;;;;;;;39.38;24.98;;;;;;;12.65;100.00;102255.28;5038988;28;20045;-83
2022/05/07 05:16:56;;;;;;;44.03;26.35;;;;;;;12.81;100.00;102268.13;5081495;28;20042;-83
2022/05/07 05:19:21;;;;;;;42.78;26.13;;;;;;;12.78;100.00;102265.72;5081084;28;20094;-82
2022/05/07 05:21:47;;;;;;;43.65;26.83;;;;;;;12.85;100.00;102274.06;5080628;28;20027;-83
2022/05/07 05:24:12;;;;;;;52.33;25.38;;;;;;;12.91;100.00;102278.00;5080495;28;20015;-83
2022/05/07 05:26:38;;;;;;;44.65;26.83;;;;;;;13.00;100.00;102288.72;5079259;28;20036;-83
2022/05/07 05:29:03;;;;;;;51.83;27.40;;;;;;;13.02;100.00;102289.44;5080157;28;20017;-82
2022/05/07 05:31:30;;;;;;;43.17;26.23;;;;;;;13.09;100.00;102296.94;5079037;28;20020;-82
2022/05/07 05:33:58;;;;;;;46.33;26.35;;;;;;;13.07;100.00;102289.03;5079810;28;20016;-82
2022/05/07 05:36:30;;;;;;;44.10;26.77;;;;;;;13.11;100.00;102292.25;5078199;28;20043;-82
2022/05/07 05:38:56;;;;;;;45.10;27.27;;;;;;;13.13;100.00;102293.78;5077915;28;20032;-83
2022/05/07 05:41:21;;;;;;;47.38;28.10;;;;;;;13.20;100.00;102305.66;5064082;28;20433;-83
2022/05/07 05:43:47;;;;;;;47.58;28.45;;;;;;;13.24;100.00;102299.03;5058719;28;20052;-83
2022/05/07 05:46:14;;;;;;;50.72;26.85;;;;;;;13.31;100.00;102301.97;5041113;28;20172;-83
2022/05/07 05:48:39;;;;;;;51.00;28.38;;;;;;;13.31;100.00;102296.63;5058602;28;20036;-83
2022/05/07 05:51:04;;;;;;;47.67;28.52;;;;;;;13.37;100.00;102300.59;5040483;28;20013;-83
2022/05/07 05:53:33;;;;;;;52.05;27.95;;;;;;;13.34;100.00;102299.03;5057087;28;20031;-83
2022/05/07 05:56:00;;;;;;;51.53;27.10;;;;;;;13.33;100.00;102299.19;5059079;28;20055;-82
2022/05/07 05:58:32;;;;;;;49.97;27.08;;;;;;;13.34;100.00;102304.41;5060347;28;20024;-83
2022/05/07 06:00:58;;;;;;;50.40;27.25;;;;;;;13.35;100.00;102298.03;5041072;28;20031;-83
2022/05/07 06:03:23;;;;;;;55.45;27.65;;;;;;;13.32;100.00;102295.63;5059745;28;20346;-83
2022/05/07 06:05:49;;;;;;;54.78;28.20;;;;;;;13.32;100.00;102302.84;5059632;28;20170;-83
2022/05/07 06:08:15;;;;;;;48.83;27.38;;;;;;;13.34;100.00;102299.03;5059532;28;20035;-83
2022/05/07 06:10:41;;;;;;;54.28;28.30;;;;;;;13.37;100.00;102298.75;5059241;28;20036;-83
2022/05/07 06:13:06;;;;;;;50.80;25.83;;;;;;;13.46;100.00;102305.09;5059874;28;20020;-83
2022/05/07 06:15:31;;;;;;;48.35;26.55;;;;;;;13.38;100.00;102303.13;5057994;28;20028;-83
2022/05/07 06:17:56;;;;;;;50.80;27.42;;;;;;;13.47;100.00;102309.47;5060114;28;20028;-82
2022/05/07 06:20:22;;;;;;;56.60;27.35;;;;;;;13.55;100.00;102300.69;5058119;28;20447;-83
2022/05/07 06:22:47;;;;;;;55.05;27.23;;;;;;;13.62;100.00;102299.97;5057133;28;20024;-83
2022/05/07 06:27:57;;;;;;;51.28;26.80;;;;;;;13.83;100.00;102306.97;5060350;28;20039;-83
2022/05/07 06:30:22;;;;;;;54.70;25.48;;;;;;;14.00;100.00;102310.72;5057557;28;20507;-83
2022/05/07 06:32:47;;;;;;;54.63;25.80;;;;;;;14.03;100.00;102307.72;5043162;28;20074;-83
2022/05/07 06:35:13;;;;;;;51.78;24.77;;;;;;;14.13;100.00;102310.38;5061109;28;20481;-83
2022/05/07 06:37:39;;;;;;;63.92;24.08;;;;;;;14.25;100.00;102313.72;5057778;28;20134;-83
2022/05/07 06:40:06;;;;;;;52.40;23.77;;;;;;;14.33;100.00;102309.28;5042780;28;20596;-83
2022/05/07 06:42:34;;;;;;;48.97;24.42;;;;;;;14.40;100.00;102306.00;5061255;28;20075;-83
2022/05/07 06:45:00;;;;;;;53.10;24.00;;;;;;;14.47;100.00;102302.56;5043431;28;20029;-83
2022/05/07 06:47:26;;;;;;;50.92;23.50;;;;;;;14.54;100.00;102313.56;5060358;28;20172;-83
2022/05/07 06:49:51;;;;;;;45.15;24.20;;;;;;;14.63;100.00;102306.44;5059154;28;20071;-83
2022/05/07 06:52:18;;;;;;;47.40;24.60;;;;;;;14.77;99.51;102315.84;5060886;28;20046;-83
2022/05/07 06:54:43;;;;;;;49.42;23.52;;;;;;;14.89;98.91;102317.31;5059542;28;20123;-83
2022/05/07 06:57:09;;;;;;;48.08;23.83;;;;;;;15.03;98.57;102307.84;5058974;28;20096;-83
2022/05/07 06:59:34;;;;;;;49.42;22.98;;;;;;;15.11;97.78;102310.63;5060239;28;20698;-83
2022/05/07 07:01:59;;;;;;;50.75;22.67;;;;;;;15.20;99.02;102312.38;5059118;28;20021;-83
2022/05/07 07:04:25;;;;;;;50.03;22.52;;;;;;;15.32;98.18;102310.28;5059995;28;20031;-83
2022/05/07 07:06:51;;;;;;;54.65;22.58;;;;;;;15.41;96.37;102308.47;5059853;28;20490;-83
2022/05/07 07:09:17;;;;;;;52.97;23.92;;;;;;;15.46;95.82;102314.25;5058502;28;20175;-82
2022/05/07 07:11:42;;;;;;;51.20;21.58;;;;;;;15.63;96.28;102313.38;5058917;28;20052;-82
2022/05/07 07:14:08;;;;;;;46.75;21.88;;;;;;;15.69;96.48;102311.03;5044025;28;20479;-83
2022/05/07 07:16:33;;;;;;;52.83;21.75;;;;;;;15.74;94.38;102314.09;5037999;28;20106;-83
2022/05/07 07:18:59;;;;;;;50.67;22.25;;;;;;;15.85;93.98;102311.16;5036667;28;20020;-83
2022/05/07 07:21:24;;;;;;;48.95;22.15;;;;;;;15.96;91.10;102312.75;5037455;28;20032;-83
2022/05/07 07:23:49;;;;;;;48.38;22.20;;;;;;;16.13;91.50;102306.41;5037108;28;20037;-83
2022/05/07 07:26:15;;;;;;;47.25;21.30;;;;;;;16.31;91.35;102309.03;5037811;28;20032;-83
2022/05/07 07:28:40;;;;;;;49.88;21.92;;;;;;;16.46;87.35;102311.91;5036412;28;20032;-84
2022/05/07 07:31:08;;;;;;;52.00;20.80;;;;;;;16.55;84.28;102302.84;5038176;28;20094;-83
2022/05/07 07:33:34;;;;;;;50.28;20.88;;;;;;;16.54;83.02;102297.63;5044590;28;20028;-84
2022/05/07 07:35:59;;;;;;;42.65;20.88;;;;;;;16.68;84.87;102299.66;5057699;28;20166;-83
2022/05/07 07:38:26;;;;;;;49.92;21.05;;;;;;;16.87;86.86;102309.34;5057106;28;20096;-83
2022/05/07 07:40:51;;;;;;;48.83;21.08;;;;;;;17.02;86.21;102304.13;5057097;28;20051;-83
2022/05/07 07:43:17;;;;;;;44.75;20.83;;;;;;;17.17;84.98;102309.69;5058753;28;20142;-83
2022/05/07 07:48:27;;;;;;;44.20;21.23;;;;;;;17.40;81.46;102309.84;5059122;28;21027;-83
2022/05/07 07:50:53;;;;;;;48.70;19.98;;;;;;;17.40;77.33;102314.44;5058384;28;20020;-84
2022/05/07 07:53:22;;;;;;;40.78;19.75;;;;;;;17.49;80.45;102316.91;5056352;28;20032;-83
2022/05/07 07:55:47;;;;;;;48.47;19.83;;;;;;;17.67;83.00;102313.19;5039700;28;20441;-83
2022/05/07 07:58:13;;;;;;;34.17;18.48;;;;;;;17.69;75.48;102306.59;5059011;28;20025;-84
2022/05/07 08:00:38;;;;;;;46.90;19.15;;;;;;;17.79;75.76;102310.97;5058731;28;20102;-84
2022/05/07 08:03:11;;;;;;;43.88;18.85;;;;;;;17.78;75.54;102309.28;5046254;28;20517;-84
2022/05/07 08:05:37;;;;;;;45.17;19.35;;;;;;;17.86;74.54;102315.53;5038512;28;20029;-84
2022/05/07 08:13:39;;;;;;;41.50;18.45;;;;;;;18.11;75.89;102317.31;5058117;28;20108;-84
2022/05/07 08:16:07;;;;;;;37.88;18.95;;;;;;;18.17;76.02;102306.63;5076919;28;20445;-85
2022/05/07 08:18:33;;;;;;;44.40;18.67;;;;;;;18.28;72.51;102313.53;5059596;28;20024;-84
2022/05/07 08:20:59;;;;;;;37.40;19.50;;;;;;;18.30;71.28;102314.19;5076976;28;20051;-83
2022/05/07 08:23:27;;;;;;;47.20;20.20;;;;;;;18.22;69.99;102309.66;5076397;28;20032;-83
2022/05/07 08:25:53;;;;;;;39.78;19.38;;;;;;;18.21;75.59;102316.09;5076711;28;20043;-83
2022/05/07 08:28:19;;;;;;;47.10;19.63;;;;;;;18.11;73.01;102311.91;5081486;28;20568;-83
2022/05/07 08:30:45;;;;;;;41.63;18.95;;;;;;;18.19;74.32;102318.09;5062990;28;20315;-83
2022/05/07 08:33:10;;;;;;;43.10;19.58;;;;;;;18.22;73.75;102311.53;5059646;28;20055;-83
2022/05/07 08:35:36;;;;;;;38.70;19.10;;;;;;;18.40;73.56;102322.09;5062239;28;20056;-84
2022/05/07 08:38:01;;;;;;;40.72;18.38;;;;;;;18.56;70.10;102315.75;5060450;28;20099;-83
2022/05/07 08:40:27;;;;;;;36.50;18.13;;;;;;;18.85;75.03;102325.06;5041997;28;20408;-83
2022/05/07 08:42:53;;;;;;;45.08;19.42;;;;;;;19.06;70.24;102318.97;5061573;28;20285;-83
2022/05/07 08:45:19;;;;;;;41.28;17.73;;;;;;;19.21;68.32;102319.84;5060408;28;20155;-83
2022/05/07 08:47:44;;;;;;;34.75;15.90;;;;;;;19.31;64.74;102323.16;5061453;28;20522;-83
2022/05/07 08:50:13;;;;;;;34.67;16.67;;;;;;;19.43;67.34;102322.72;5061469;28;20123;-83
2022/05/07 08:52:40;;;;;;;38.33;17.35;;;;;;;19.33;62.71;102321.13;5041404;28;20166;-83
2022/05/07 08:55:06;;;;;;;36.38;15.10;;;;;;;19.09;62.39;102315.91;5059910;28;20372;-83
2022/05/07 08:57:31;;;;;;;36.55;15.23;;;;;;;19.07;62.76;102317.97;5060734;28;20031;-83
2022/05/07 08:59:57;;;;;;;27.13;11.77;;;;;;;18.87;58.18;102318.44;5042654;28;20029;-83
2022/05/07 09:02:22;;;;;;;29.42;12.63;;;;;;;18.80;59.99;102318.31;5062147;28;20108;-83
2022/05/07 09:04:57;;;;;;;28.10;13.80;;;;;;;18.75;62.87;102327.97;5062554;28;20028;-84
2022/05/07 09:07:24;;;;;;;37.22;15.18;;;;;;;18.86;63.50;102322.19;5061452;28;20352;-83
2022/05/07 09:09:51;;;;;;;32.30;15.25;;;;;;;19.13;65.61;102328.06;5063577;28;20017;-83
2022/05/07 09:12:29;;;;;;;37.42;17.02;;;;;;;19.42;65.34;102324.59;5062170;28;20123;-83
2022/05/07 09:15:00;;;;;;;41.47;15.77;;;;;;;19.83;67.53;102326.09;5082673;28;20020;-83
2022/05/07 09:17:25;;;;;;;;;;;;;;;20.10;64.62;102319.16;5081949;28;20281;-83
2022/05/07 09:19:51;;;;;;;42.77;16.07;;;;;;;20.16;62.55;102317.56;5082980;28;20370;-84
2022/05/07 09:22:17;;;;;;;45.00;17.60;;;;;;;20.09;63.21;102312.88;5081936;28;20285;-84
2022/05/07 09:24:52;;;;;;;45.92;17.48;;;;;;;20.16;65.11;102310.25;5084659;28;20493;-82
2022/05/07 09:27:18;;;;;;;34.40;16.25;;;;;;;20.22;61.85;102316.81;5083458;28;20091;-85
2022/05/07 09:29:43;;;;;;;33.47;14.68;;;;;;;20.13;58.38;102316.91;5082740;28;20051;-83
2022/05/07 09:32:11;;;;;;;39.97;15.95;;;;;;;20.34;61.58;102309.84;5081246;28;20031;-83
2022/05/07 09:37:35;;;;;;;49.72;19.45;;;;;;;20.55;58.81;102313.63;5059675;28;20035;-83
2022/05/07 09:40:07;;;;;;;40.50;18.00;;;;;;;20.70;59.81;102317.19;5059321;28;20035;-83
2022/05/07 09:42:33;;;;;;;36.85;17.40;;;;;;;20.91;60.68;102320.94;5022008;28;20025;-83
2022/05/07 09:45:01;;;;;;;33.70;16.80;;;;;;;21.09;58.40;102318.59;5056246;28;20493;-84
2022/05/07 09:47:27;;;;;;;36.55;17.40;;;;;;;21.11;57.98;102321.97;5061676;28;20050;-84
2022/05/07 09:57:30;;;;;;;42.30;16.85;;;;;;;21.49;60.20;102321.69;5059173;28;20032;-83
2022/05/07 09:58:09;;;;;;;34.45;15.68;;;;;;;21.74;54.80;102326.66;5060710;28;20513;-83
2022/05/07 10:00:57;;;;;;;33.70;15.15;;;;;;;21.89;54.43;102319.22;5059236;28;20053;-83
2022/05/07 10:03:30;;;;;;;35.17;15.15;;;;;;;22.09;56.18;102321.22;5058498;28;20047;-83
2022/05/07 10:06:15;;;;;;;32.83;15.40;;;;;;;22.02;53.95;102318.44;5041924;28;20230;-86
2022/05/07 10:09:10;;;;;;;27.27;14.02;;;;;;;22.11;55.12;102314.50;5058527;28;20244;-83
2022/05/07 10:11:36;;;;;;;30.33;14.70;;;;;;;22.29;54.75;102313.16;5058336;28;20426;-83
2022/05/07 10:14:02;;;;;;;33.40;15.23;;;;;;;22.08;54.72;102316.78;5042339;28;20074;-83
2022/05/07 10:16:30;;;;;;;39.47;15.35;;;;;;;21.83;52.44;102314.59;5039706;28;20072;-85
2022/05/07 10:18:56;;;;;;;35.72;15.77;;;;;;;21.60;52.71;102315.69;5039398;28;20331;-83
2022/05/07 10:21:22;;;;;;;38.97;16.05;;;;;;;21.64;53.39;102316.16;5020872;28;20642;-84
2022/05/07 10:23:53;;;;;;;29.13;13.45;;;;;;;21.81;52.47;102305.81;5039306;28;20641;-84
2022/05/07 10:26:20;;;;;;;29.52;13.57;;;;;;;21.96;51.48;102313.81;5041038;28;20362;-85
2022/05/07 10:28:46;;;;;;;27.02;13.30;;;;;;;22.16;56.70;102308.47;5024976;28;20029;-84
2022/05/07 10:31:27;;;;;;;31.05;14.63;;;;;;;22.29;51.20;102310.44;5042160;28;20075;-83
2022/05/07 10:33:52;;;;;;;29.45;14.88;;;;;;;22.68;52.46;102312.44;5041359;28;20024;-83
2022/05/07 10:36:19;;;;;;;32.65;14.25;;;;;;;23.01;51.26;102305.34;5039058;28;20021;-84
2022/05/07 10:38:46;;;;;;;31.92;16.15;;;;;;;23.05;51.25;102314.81;5039431;28;20021;-84
2022/05/07 10:41:11;;;;;;;31.58;14.63;;;;;;;23.13;52.19;102300.16;5038617;28;20029;-84
2022/05/07 10:43:48;;;;;;;33.30;14.93;;;;;;;23.26;50.00;102300.16;5039642;28;20028;-84
2022/05/07 10:46:20;;;;;;;33.33;14.98;;;;;;;23.61;49.58;102308.09;5038547;28;20024;-84
2022/05/07 10:48:48;;;;;;;33.55;15.60;;;;;;;23.53;48.65;102298.25;5038133;28;20036;-84
2022/05/07 10:51:29;;;;;;;36.63;15.23;;;;;;;23.67;48.63;102304.50;5038122;28;20021;-83
2022/05/07 10:54:03;;;;;;;34.28;15.57;;;;;;;23.83;47.79;102298.63;5037244;28;20230;-83
2022/05/07 10:56:30;;;;;;;29.25;15.05;;;;;;;23.31;48.08;102294.09;5037351;28;20391;-82
2022/05/07 10:58:59;;;;;;;31.98;15.15;;;;;;;22.57;48.87;102304.88;5018992;28;20304;-84
2022/05/07 11:01:27;;;;;;;34.88;14.43;;;;;;;22.42;51.79;102296.88;5020978;28;20040;-84
2022/05/07 11:04:09;;;;;;;31.85;14.85;;;;;;;22.28;51.20;102290.53;5039123;28;20021;-83
2022/05/07 11:06:40;;;;;;;33.38;15.93;;;;;;;22.24;51.64;102300.13;5037580;28;20387;-83
2022/05/07 11:09:06;;;;;;;34.45;16.48;;;;;;;22.33;49.99;102293.47;5037454;28;20103;-83
2022/05/07 11:11:44;;;;;;;34.80;15.65;;;;;;;22.95;51.52;102301.59;5037255;28;20053;-83
2022/05/07 11:14:10;;;;;;;31.88;15.20;;;;;;;23.34;50.46;102293.66;5069081;28;20034;-85
2022/05/07 11:16:41;;;;;;;29.67;15.18;;;;;;;23.40;51.11;102298.25;5077858;28;20546;-84
2022/05/07 11:19:06;;;;;;;30.58;15.18;;;;;;;22.94;49.13;102289.00;5077766;28;20115;-83
2022/05/07 11:21:36;;;;;;;25.92;14.45;;;;;;;22.80;51.63;102296.34;5076952;28;20046;-83
2022/05/07 11:24:02;;;;;;;28.67;14.82;;;;;;;22.80;50.02;102285.44;5059516;28;20073;-83
2022/05/07 11:26:28;;;;;;;32.13;14.93;;;;;;;22.72;49.59;102283.72;5077392;28;20031;-82
2022/05/07 11:28:53;;;;;;;26.75;13.52;;;;;;;22.92;51.77;102291.09;5078256;28;20035;-82
2022/05/07 11:31:25;;;;;;;26.50;13.82;;;;;;;22.68;48.93;102293.38;5078406;28;20243;-85
2022/05/07 11:34:01;;;;;;;27.50;12.73;;;;;;;22.85;50.00;102282.94;5068813;28;20032;-85
2022/05/07 11:36:27;;;;;;;28.70;13.80;;;;;;;23.08;49.60;102279.84;5058549;28;20031;-84